KEST/EST METAR and TAF weather

Enter ICAO airport designator
Station Type Date Time Source
KEST METAR 2019/08/17 10:52 UTC NOAA

KEST 171052Z AUTO 17009KT 10SM CLR 14/13 A2989 RMK AO2 SLP119 T01390133 $


Station Type Date Time Source
KEST Decoded METAR 2019/08/17 10:52 UTC NOAA

Station name not available
Aug 17, 2019 - 06:52 AM EDT / 2019.08.17 1052 UTC
Wind: from the S (170 degrees) at 10 MPH (9 KT):0
Visibility: 10 mile(s):0
Sky conditions: clear
Temperature: 57.0 F (13.9 C)
Dew Point: 55.9 F (13.3 C)
Relative Humidity: 96%
Pressure (altimeter): 29.89 in. Hg (1012 hPa)
ob: KEST 171052Z AUTO 17009KT 10SM CLR 14/13 A2989 RMK AO2 SLP119 T01390133
cycle: 11

Station Type Date Time Source
KEST TAF UTC NOAA

Error!

Example: see airport list